Lake Charles Regional Airport
KLCH : rendu visible

Aérodrome :











RETROUVEZ-NOUS SUR...

 
LOGIN :

S'inscrire | Disclaimer

   EN    FR    IT 

 









Légende :    VFR   VFR Marginal   IFR   IFR Intensif   IFR Très Intensif
Visi : 
Plafond : 
>= 8 km
>= 3000ft
5 à 8 km
1000 à 3000 ft
1500m à 5 km
500 à 1000 ft
800 à 1500m
200 à 500 ft
< 800m
< 200 ft
Symboles :   Orages  Brouillard  Fortes neiges  Fortes précipitations  Vent > 20 kt






- Altitude de l'aérodrome : 15 ft
- Code IATA : LCH


KLCH - Lake Charles Regional

DERNIER METAR :
  • 311653Z 08010KT 10SM FEW080 28/18 A3011 RMK AO2 SLP202 T02780183

METARs EXPIRÉS :
  • 311553Z 08013KT 10SM SCT075 BKN120 27/19 A3011 RMK AO2 SLP202 T02720189
  • 311453Z 07011KT 10SM OVC070 26/21 A3011 RMK AO2 SLP203 T02610206 51013

TAF KLCH
Valide du 31 à 12h jusqu'au 01 à 12h UTC


311122Z 3112/0112 VRB05KT P6SM BKN120
FM311400 06009KT P6SM SCT035 SCT250
FM312000 08009KT P6SM VCTS SCT040CB BKN100
PROB30 3121/3124 4SM TSRA OVC030CB
FM010200 VRB03KT P6SM SCT050 BKN250
FIR KZHU / Amérique du Nord



MET'MAP, la Météo Aéronautique d'un coup d'oeil ! - Copyright ORBIFLY Décembre 2007 - Disclaimer

ORBIFLY MET'MAP TEAM :

Programmation & Développement : Alexandra Zaïnal
Sur une idée originale de : Baudouin d'Aumeries
Assistance à la programmation : Marc-Olivier Méhu
Soutien technique & logistique : Manuel Goepfert

Contact : metmap@orbifly.com




SOURCES & CREDITS :

   NOAA       Earth
Advisory